Time;durP1;ratioP1;P1;durP2;ratioP2;P2;SDS_P1;SDS_P2;PMS_P1;PMS_P2;Temp;Humidity;BMP_temperature;BMP_pressure;BME280_temperature;BME280_humidity;BME280_pressure;Samples;Min_cycle;Max_cycle;Signal;HPM_P1;HPM_P2
2024/02/27 00:02:15;;;;;;;56.33;32.05;;;;;;;9.91;100.00;99828.59;1797213;79;25612;-67
2024/02/27 00:04:43;;;;;;;59.33;31.20;;;;;;;9.90;100.00;99824.84;1797173;79;25659;-69
2024/02/27 00:07:11;;;;;;;52.00;30.20;;;;;;;9.87;100.00;99823.56;1797316;79;25700;-68
2024/02/27 00:09:44;;;;;;;56.92;32.15;;;;;;;9.84;100.00;99830.97;1797933;79;27652;-68
2024/02/27 00:12:11;;;;;;;53.80;31.30;;;;;;;9.81;100.00;99826.75;1797924;79;25878;-68
2024/02/27 00:14:38;;;;;;;55.73;31.37;;;;;;;9.77;99.99;99824.42;1797968;79;25582;-67
2024/02/27 00:17:04;;;;;;;55.17;30.95;;;;;;;9.73;100.00;99831.80;1797948;79;25681;-68
2024/02/27 00:19:32;;;;;;;55.35;31.27;;;;;;;9.69;100.00;99826.01;1797962;79;25594;-68
2024/02/27 00:21:58;;;;;;;52.73;31.55;;;;;;;9.67;100.00;99824.97;1797987;79;27545;-68
2024/02/27 00:24:26;;;;;;;55.30;31.93;;;;;;;9.63;100.00;99826.69;1797827;79;25615;-68
2024/02/27 00:26:53;;;;;;;57.95;30.95;;;;;;;9.60;100.00;99830.01;1797988;79;25561;-68
2024/02/27 00:29:19;;;;;;;60.43;31.37;;;;;;;9.59;100.00;99837.10;1797921;79;25611;-68
2024/02/27 00:31:45;;;;;;;53.58;31.93;;;;;;;9.54;100.00;99833.41;1798012;79;25441;-68
2024/02/27 00:34:12;;;;;;;54.38;30.02;;;;;;;9.52;100.00;99844.30;1797983;79;27511;-68
2024/02/27 00:36:38;;;;;;;51.30;30.70;;;;;;;9.48;100.00;99841.97;1797910;79;25522;-68
2024/02/27 00:39:05;;;;;;;54.18;32.08;;;;;;;9.46;100.00;99842.28;1797935;79;25364;-67
2024/02/27 00:41:31;;;;;;;55.03;30.62;;;;;;;9.42;100.00;99848.07;1797942;79;25557;-68
2024/02/27 00:43:57;;;;;;;52.93;28.17;;;;;;;9.40;100.00;99843.55;1798022;79;25408;-68
2024/02/27 00:46:23;;;;;;;54.85;30.02;;;;;;;9.38;100.00;99840.90;1797951;79;27464;-68
2024/02/27 00:48:49;;;;;;;56.50;30.08;;;;;;;9.35;100.00;99845.81;1797924;79;25374;-68
2024/02/27 00:51:15;;;;;;;56.35;29.82;;;;;;;9.33;100.00;99845.34;1797986;79;25614;-68
2024/02/27 00:53:42;;;;;;;53.30;30.08;;;;;;;9.31;100.00;99842.69;1797933;79;25577;-68
2024/02/27 00:56:09;;;;;;;58.52;30.25;;;;;;;9.32;100.00;99841.59;1797988;79;25603;-68
2024/02/27 00:58:36;;;;;;;53.28;28.23;;;;;;;9.29;100.00;99845.70;1798097;79;27348;-67
2024/02/27 01:01:04;;;;;;;52.30;30.02;;;;;;;9.27;100.00;99842.52;1797790;79;26201;-68
2024/02/27 01:03:30;;;;;;;56.33;29.15;;;;;;;9.26;100.00;99845.00;1798034;79;25529;-68
2024/02/27 01:05:59;;;;;;;54.40;30.45;;;;;;;9.25;100.00;99850.14;1797916;79;25609;-68
2024/02/27 01:08:25;;;;;;;53.55;28.45;;;;;;;9.22;100.00;99849.97;1798035;79;25539;-68
2024/02/27 01:10:53;;;;;;;49.83;28.57;;;;;;;9.20;100.00;99850.27;1797980;79;28346;-68
2024/02/27 01:13:19;;;;;;;51.48;28.27;;;;;;;9.20;100.00;99853.53;1797926;79;25482;-68
2024/02/27 01:15:45;;;;;;;52.00;28.57;;;;;;;9.15;100.00;99852.55;1798002;79;25549;-68
2024/02/27 01:18:12;;;;;;;51.65;29.52;;;;;;;9.15;100.00;99855.80;1797967;79;25467;-68
2024/02/27 01:20:38;;;;;;;53.98;29.25;;;;;;;9.12;100.00;99858.55;1798041;79;25648;-68
2024/02/27 01:23:05;;;;;;;50.90;28.83;;;;;;;9.09;100.00;99848.94;1798068;79;28082;-68
2024/02/27 01:25:31;;;;;;;48.95;29.07;;;;;;;9.06;100.00;99853.06;1797878;79;25890;-67
2024/02/27 01:27:57;;;;;;;53.02;27.73;;;;;;;9.05;100.00;99866.86;1798108;79;25419;-67
2024/02/27 01:30:24;;;;;;;49.85;27.15;;;;;;;9.02;100.00;99869.61;1798041;79;26511;-67
2024/02/27 01:32:50;;;;;;;48.42;27.98;;;;;;;9.01;100.00;99869.91;1798203;79;25380;-67
2024/02/27 01:35:18;;;;;;;53.60;27.93;;;;;;;8.98;100.00;99870.78;1798225;79;27468;-68
2024/02/27 01:37:45;;;;;;;51.10;26.85;;;;;;;8.96;100.00;99871.65;1798031;79;25597;-67
2024/02/27 01:40:13;;;;;;;51.63;28.17;;;;;;;8.91;100.00;99877.17;1798123;79;25414;-67
2024/02/27 01:42:47;;;;;;;49.45;28.40;;;;;;;8.88;100.00;99879.13;1798064;79;25652;-67
2024/02/27 01:45:23;;;;;;;47.65;27.35;;;;;;;8.86;100.00;99875.16;1798179;79;25560;-68
2024/02/27 01:47:53;;;;;;;53.50;29.00;;;;;;;8.83;100.00;99881.95;1798195;79;27869;-68
2024/02/27 01:50:23;;;;;;;53.50;27.87;;;;;;;8.81;100.00;99882.81;1798016;79;25545;-68
2024/02/27 01:52:51;;;;;;;56.60;28.25;;;;;;;8.79;100.00;99886.37;1798012;79;25380;-68
2024/02/27 01:55:19;;;;;;;48.25;27.30;;;;;;;8.76;100.00;99878.33;1798113;79;25462;-68
2024/02/27 01:57:47;;;;;;;53.60;28.38;;;;;;;8.72;100.00;99873.88;1798156;79;25389;-68
2024/02/27 02:00:15;;;;;;;49.15;28.27;;;;;;;8.69;100.00;99878.53;1798090;79;27997;-68
2024/02/27 02:02:47;;;;;;;50.38;27.55;;;;;;;8.66;100.00;99880.48;1797947;79;25570;-67
2024/02/27 02:05:11;;;;;;;46.35;28.27;;;;;;;8.63;100.00;99879.18;1797424;77;25551;-67
2024/02/27 02:07:40;;;;;;;45.73;25.90;;;;;;;8.59;100.00;99885.73;1798075;79;25420;-67
2024/02/27 02:10:11;;;;;;;53.23;27.80;;;;;;;8.55;100.00;99892.85;1798239;79;25422;-68
2024/02/27 02:12:38;;;;;;;52.20;28.23;;;;;;;8.52;100.00;99900.76;1798088;79;28328;-68
2024/02/27 02:15:07;;;;;;;47.65;26.77;;;;;;;8.50;100.00;99906.45;1797982;79;25621;-68
2024/02/27 02:17:34;;;;;;;51.20;28.57;;;;;;;8.49;100.00;99900.02;1798222;79;25571;-68
2024/02/27 02:20:04;;;;;;;49.18;27.42;;;;;;;8.48;100.00;99902.45;1798070;79;26279;-68
2024/02/27 02:22:29;;;;;;;45.17;26.30;;;;;;;8.47;100.00;99895.48;1798157;79;25431;-68
2024/02/27 02:24:56;;;;;;;49.90;28.20;;;;;;;8.45;100.00;99898.48;1798169;79;27363;-69
2024/02/27 02:27:25;;;;;;;46.75;26.30;;;;;;;8.40;100.00;99896.66;1797962;79;25569;-69
2024/02/27 02:29:52;;;;;;;46.05;26.90;;;;;;;8.37;100.00;99893.22;1798203;79;25565;-68
2024/02/27 02:32:19;;;;;;;51.90;27.48;;;;;;;8.35;100.00;99900.81;1798027;79;25628;-68
2024/02/27 02:34:45;;;;;;;47.13;25.72;;;;;;;8.33;100.00;99899.53;1798104;79;25417;-68
2024/02/27 02:37:11;;;;;;;47.05;26.55;;;;;;;8.30;100.00;99900.92;1798063;79;27319;-68
2024/02/27 02:39:38;;;;;;;54.40;27.67;;;;;;;8.28;100.00;99899.64;1797984;79;25792;-68
2024/02/27 02:42:07;;;;;;;55.88;28.10;;;;;;;8.25;100.00;99907.77;1798065;79;25611;-68
2024/02/27 02:44:34;;;;;;;47.43;26.70;;;;;;;8.24;100.00;99902.16;1798185;79;25560;-69
2024/02/27 02:47:00;;;;;;;44.03;25.43;;;;;;;8.21;100.00;99906.23;1798082;79;25458;-69
2024/02/27 02:49:26;;;;;;;48.83;26.97;;;;;;;8.21;100.00;99912.18;1798093;79;27774;-68
2024/02/27 02:51:52;;;;;;;50.33;26.50;;;;;;;8.18;100.00;99902.00;1797929;79;25796;-68
2024/02/27 02:54:20;;;;;;;43.02;25.10;;;;;;;8.19;100.00;99903.61;1798131;79;25462;-68
2024/02/27 02:56:46;;;;;;;48.48;25.40;;;;;;;8.16;100.00;99905.55;1798009;79;26014;-68
2024/02/27 02:59:12;;;;;;;46.83;24.70;;;;;;;8.14;100.00;99904.51;1798099;79;25441;-67
2024/02/27 03:01:39;;;;;;;39.80;22.90;;;;;;;8.13;100.00;99911.54;1797941;79;28054;-67
2024/02/27 03:04:06;;;;;;;47.43;24.25;;;;;;;8.10;100.00;99912.14;1798012;79;25459;-68
2024/02/27 03:06:32;;;;;;;41.37;24.52;;;;;;;8.04;100.00;99914.94;1798043;79;25371;-67
2024/02/27 03:08:58;;;;;;;44.65;23.02;;;;;;;7.99;100.00;99915.05;1798000;79;26061;-67
2024/02/27 03:11:24;;;;;;;47.10;29.80;;;;;;;7.97;100.00;99916.45;1798157;79;25625;-68
2024/02/27 03:13:50;;;;;;;44.20;25.48;;;;;;;7.94;100.00;99914.36;1798046;79;27524;-67
2024/02/27 03:16:17;;;;;;;43.42;23.40;;;;;;;7.95;100.00;99909.20;1797979;79;25555;-67
2024/02/27 03:18:43;;;;;;;48.13;26.30;;;;;;;7.91;100.00;99913.60;1798074;79;25622;-67
2024/02/27 03:21:09;;;;;;;52.48;28.02;;;;;;;7.89;100.00;99919.29;1798025;79;25461;-67
2024/02/27 03:23:35;;;;;;;51.08;28.20;;;;;;;7.84;100.00;99918.83;1798091;79;25566;-67
2024/02/27 03:26:01;;;;;;;51.60;27.95;;;;;;;7.81;100.00;99923.46;1798049;79;28177;-67
2024/02/27 03:28:27;;;;;;;50.17;27.82;;;;;;;7.78;100.00;99925.43;1797954;79;25626;-67
2024/02/27 03:30:54;;;;;;;52.95;30.62;;;;;;;7.75;100.00;99933.31;1798072;79;25594;-67
2024/02/27 03:33:20;;;;;;;46.60;26.20;;;;;;;7.72;100.00;99938.73;1797976;79;25613;-67
2024/02/27 03:35:46;;;;;;;45.85;27.22;;;;;;;7.70;100.00;99937.45;1798046;79;25458;-67
2024/02/27 03:38:12;;;;;;;49.60;28.38;;;;;;;7.68;100.00;99935.05;1798054;79;27465;-68
2024/02/27 03:40:38;;;;;;;49.35;28.85;;;;;;;7.66;100.00;99942.08;1797940;79;25648;-67
2024/02/27 03:43:05;;;;;;;50.38;28.73;;;;;;;7.66;100.00;99945.29;1798053;79;25605;-67
2024/02/27 03:45:31;;;;;;;51.85;28.40;;;;;;;7.62;100.00;99947.78;1797982;79;25597;-68
2024/02/27 03:47:57;;;;;;;63.10;29.42;;;;;;;7.59;100.00;99945.68;1798101;79;25468;-68
2024/02/27 03:50:23;;;;;;;55.95;27.45;;;;;;;7.56;100.00;99947.64;1798033;79;28008;-68
2024/02/27 03:52:49;;;;;;;47.17;28.65;;;;;;;7.55;100.00;99951.42;1797901;79;25603;-70
2024/02/27 03:55:16;;;;;;;50.33;27.13;;;;;;;7.52;100.00;99950.66;1798005;79;25434;-70
2024/02/27 03:57:42;;;;;;;49.00;28.42;;;;;;;7.51;100.00;99948.27;1797967;79;25500;-70
2024/02/27 04:00:13;;;;;;;52.10;29.30;;;;;;;7.51;100.00;99950.95;1798036;79;25537;-71
2024/02/27 04:02:39;;;;;;;52.60;29.20;;;;;;;7.46;100.00;99948.62;1797937;79;27444;-71
2024/02/27 04:05:09;;;;;;;53.50;28.87;;;;;;;7.45;100.00;99954.30;1797897;79;25523;-71
2024/02/27 04:07:37;;;;;;;;;;;;;;;7.43;100.00;99945.72;1800682;79;25634;-72
2024/02/27 04:10:04;;;;;;;46.77;28.90;;;;;;;7.40;100.00;99947.66;1797979;79;25610;-72
2024/02/27 04:12:30;;;;;;;54.03;29.70;;;;;;;7.38;100.00;99948.50;1797969;79;25399;-72
2024/02/27 04:14:56;;;;;;;48.87;27.82;;;;;;;7.37;100.00;99944.20;1797995;79;27460;-72
2024/02/27 04:17:23;;;;;;;45.73;28.17;;;;;;;7.36;100.00;99948.00;1797911;79;25466;-71
2024/02/27 04:19:49;;;;;;;47.27;27.02;;;;;;;7.33;100.00;99944.00;1767032;79;25552;-71
2024/02/27 04:22:15;;;;;;;49.45;28.07;;;;;;;7.32;100.00;99947.80;1797983;79;25443;-71
2024/02/27 04:24:42;;;;;;;52.48;28.38;;;;;;;7.32;100.00;99950.49;1797988;79;25612;-71
2024/02/27 04:27:08;;;;;;;48.55;27.85;;;;;;;7.31;100.00;99942.16;1798007;79;27456;-71
2024/02/27 04:29:34;;;;;;;56.85;30.10;;;;;;;7.28;100.00;99950.26;1797894;79;25691;-70
2024/02/27 04:32:01;;;;;;;51.73;28.40;;;;;;;7.28;100.00;99945.44;1797977;79;25421;-70
2024/02/27 04:34:27;;;;;;;50.60;28.07;;;;;;;7.26;100.00;99946.28;1797948;79;25551;-71
2024/02/27 04:36:53;;;;;;;51.05;30.25;;;;;;;7.25;100.00;99946.02;1798044;79;25588;-71
2024/02/27 04:39:19;;;;;;;56.60;30.12;;;;;;;7.22;100.00;99943.91;1797999;79;27462;-71
2024/02/27 04:41:46;;;;;;;52.00;30.50;;;;;;;7.21;100.00;99944.47;1797910;79;25726;-70
2024/02/27 04:44:12;;;;;;;54.77;28.70;;;;;;;7.21;100.00;99929.67;1797979;79;25547;-71
2024/02/27 04:46:38;;;;;;;49.65;28.77;;;;;;;7.20;100.00;99932.66;1797945;79;26023;-69
2024/02/27 04:49:04;;;;;;;52.38;28.75;;;;;;;7.19;100.00;99935.90;1798004;79;25455;-70
2024/02/27 04:51:31;;;;;;;54.70;29.32;;;;;;;7.17;100.00;99930.02;1797992;79;27457;-69
2024/02/27 04:53:58;;;;;;;53.60;28.67;;;;;;;7.17;100.00;99927.86;1797872;79;25558;-70
2024/02/27 04:56:24;;;;;;;57.45;30.72;;;;;;;7.16;100.00;99931.66;1797969;79;25385;-70
2024/02/27 04:58:51;;;;;;;57.80;29.52;;;;;;;7.17;100.00;99934.58;1797948;79;25581;-70
2024/02/27 05:01:18;;;;;;;52.75;28.90;;;;;;;7.17;100.00;99943.99;1798019;79;25616;-70
2024/02/27 05:03:44;;;;;;;56.10;29.85;;;;;;;7.16;100.00;99940.52;1790593;79;28203;-70
2024/02/27 05:06:13;;;;;;;53.38;30.08;;;;;;;7.17;100.00;99942.13;1786314;80;25645;-70
2024/02/27 05:08:39;;;;;;;59.80;31.10;;;;;;;7.17;100.00;99947.50;1786841;80;25563;-69
2024/02/27 05:11:05;;;;;;;52.70;28.62;;;;;;;7.18;100.00;99943.70;1786643;80;25548;-69
2024/02/27 05:13:33;;;;;;;58.55;29.50;;;;;;;7.21;100.00;99950.40;1786641;80;25488;-69
2024/02/27 05:15:59;;;;;;;55.90;28.70;;;;;;;7.24;100.00;99961.92;1786696;80;28119;-70
2024/02/27 05:18:26;;;;;;;58.50;31.77;;;;;;;7.24;100.00;99958.67;1786612;80;25488;-70
2024/02/27 05:20:52;;;;;;;57.38;31.35;;;;;;;7.25;100.00;99962.16;1786679;80;25549;-70
2024/02/27 05:23:19;;;;;;;55.33;30.45;;;;;;;7.26;100.00;99966.45;1786644;80;25589;-71
2024/02/27 05:25:45;;;;;;;59.50;31.25;;;;;;;7.26;100.00;99975.31;1786724;80;25457;-71
2024/02/27 05:28:12;;;;;;;56.48;30.52;;;;;;;7.26;100.00;99975.88;1786670;80;27450;-71
2024/02/27 05:30:39;;;;;;;53.20;30.17;;;;;;;7.27;100.00;99979.62;1786582;80;25858;-71
2024/02/27 05:33:05;;;;;;;59.38;30.17;;;;;;;7.28;100.00;99984.44;1786653;80;25527;-71
2024/02/27 05:35:32;;;;;;;54.18;29.67;;;;;;;7.29;100.00;99994.13;1786603;80;25528;-70
2024/02/27 05:37:59;;;;;;;50.35;28.73;;;;;;;7.28;100.00;99997.34;1786737;80;25397;-71
2024/02/27 05:40:25;;;;;;;58.28;31.27;;;;;;;7.28;100.00;100002.72;1786304;80;29366;-71
2024/02/27 05:42:52;;;;;;;53.98;30.70;;;;;;;7.29;100.00;100005.67;1786548;80;25743;-71
2024/02/27 05:45:18;;;;;;;55.10;30.40;;;;;;;7.28;100.00;100007.31;1786668;80;25438;-70
2024/02/27 05:47:46;;;;;;;54.93;31.12;;;;;;;7.29;100.00;100008.92;1786625;80;25561;-71
2024/02/27 05:50:13;;;;;;;50.90;28.55;;;;;;;7.28;100.00;100011.34;1786658;80;25576;-71
2024/02/27 05:52:39;;;;;;;58.23;29.40;;;;;;;7.27;100.00;100013.25;1786642;80;27502;-70
2024/02/27 05:55:06;;;;;;;53.25;28.57;;;;;;;7.26;100.00;100008.95;1786539;80;25684;-70
2024/02/27 05:57:33;;;;;;;51.00;29.10;;;;;;;7.26;100.00;100019.70;1786657;80;25507;-70
2024/02/27 06:00:00;;;;;;;54.53;28.70;;;;;;;7.26;100.00;100023.74;1786605;80;25555;-68
2024/02/27 06:02:26;;;;;;;53.92;29.90;;;;;;;7.26;100.00;100022.40;1786692;80;25575;-72
2024/02/27 06:04:52;;;;;;;53.05;29.95;;;;;;;7.26;100.00;100028.33;1797640;78;27800;-72
2024/02/27 06:07:20;;;;;;;57.88;30.95;;;;;;;7.27;100.00;100036.64;1798027;79;25511;-70
2024/02/27 06:09:46;;;;;;;55.25;30.40;;;;;;;7.28;100.00;100039.59;1798205;79;25539;-70
2024/02/27 06:12:12;;;;;;;58.75;31.60;;;;;;;7.29;100.00;100042.55;1797429;79;25738;-71
2024/02/27 06:14:40;;;;;;;54.70;30.15;;;;;;;7.31;100.00;100040.91;1796897;79;25890;-71
2024/02/27 06:17:07;;;;;;;51.40;30.65;;;;;;;7.31;100.00;100045.74;1797261;79;27473;-71
2024/02/27 06:19:34;;;;;;;56.40;29.85;;;;;;;7.33;100.00;100051.63;1796897;79;25727;-70
2024/02/27 06:22:10;;;;;;;56.10;32.73;;;;;;;7.34;100.00;100049.20;1797002;79;25293;-71
2024/02/27 06:24:38;;;;;;;54.03;31.37;;;;;;;7.36;100.00;100052.94;1768258;79;26299;-71
2024/02/27 06:27:08;;;;;;;59.55;31.33;;;;;;;7.37;100.00;100055.87;1797460;79;25632;-71
2024/02/27 06:29:34;;;;;;;55.73;30.90;;;;;;;7.41;100.00;100050.96;1798267;79;27460;-70
2024/02/27 06:32:01;;;;;;;56.40;30.05;;;;;;;7.46;100.00;100046.84;1798024;79;25640;-69
2024/02/27 06:34:28;;;;;;;59.33;31.52;;;;;;;7.49;100.00;100045.44;1798032;79;25420;-71
2024/02/27 06:36:54;;;;;;;51.13;30.25;;;;;;;7.51;100.00;100043.80;1798085;79;25624;-71
2024/02/27 06:39:21;;;;;;;56.30;31.82;;;;;;;7.54;100.00;100048.05;1798163;79;25181;-71
2024/02/27 06:41:50;;;;;;;55.50;31.02;;;;;;;7.60;100.00;100044.19;1798142;79;27485;-71
2024/02/27 06:44:18;;;;;;;58.73;31.55;;;;;;;7.65;100.00;100044.66;1798046;79;25580;-71
2024/02/27 06:46:45;;;;;;;56.00;31.07;;;;;;;7.74;100.00;100052.86;1798167;79;25392;-71
2024/02/27 06:49:12;;;;;;;54.55;32.40;;;;;;;7.80;100.00;100048.44;1798031;79;25556;-71
2024/02/27 06:51:41;;;;;;;60.50;31.60;;;;;;;7.85;100.00;100048.91;1798114;79;25436;-71
2024/02/27 06:54:07;;;;;;;60.65;32.42;;;;;;;7.86;100.00;100041.84;1798211;79;28138;-71
2024/02/27 06:56:33;;;;;;;53.83;30.48;;;;;;;7.88;100.00;100038.86;1798030;79;25859;-71
2024/02/27 06:58:59;;;;;;;60.08;32.28;;;;;;;7.89;100.00;100047.77;1798065;79;25588;-71
2024/02/27 07:01:26;;;;;;;56.10;31.77;;;;;;;7.90;100.00;100046.12;1798038;79;25636;-72
2024/02/27 07:03:52;;;;;;;58.95;31.37;;;;;;;7.92;100.00;100052.00;1793263;79;25655;-71
2024/02/27 07:06:21;;;;;;;64.47;31.87;;;;;;;7.92;100.00;100050.66;1786656;80;27449;-70
2024/02/27 07:08:50;;;;;;;57.05;32.17;;;;;;;7.94;100.00;100057.09;1786526;80;25594;-70
2024/02/27 07:11:15;;;;;;;52.53;30.97;;;;;;;7.95;100.00;100067.57;1786672;80;25627;-70
2024/02/27 07:13:43;;;;;;;57.90;31.45;;;;;;;7.99;100.00;100062.39;1786611;80;25552;-71
2024/02/27 07:16:11;;;;;;;57.45;32.17;;;;;;;8.02;100.00;100063.15;1786611;80;25564;-71
2024/02/27 07:18:38;;;;;;;53.23;29.95;;;;;;;8.08;100.00;100063.84;1786595;80;28116;-71
2024/02/27 07:21:05;;;;;;;60.33;32.85;;;;;;;8.15;100.00;100066.38;1786484;80;25461;-70
2024/02/27 07:23:32;;;;;;;62.53;33.23;;;;;;;8.22;100.00;100065.47;1786574;80;25548;-71
2024/02/27 07:25:59;;;;;;;60.33;32.08;;;;;;;8.29;100.00;100059.68;1786591;80;25562;-70
2024/02/27 07:28:25;;;;;;;63.65;32.60;;;;;;;8.36;100.00;100064.12;1786529;80;25606;-71
2024/02/27 07:30:51;;;;;;;60.67;32.58;;;;;;;8.45;100.00;100060.76;1786605;80;27472;-71
2024/02/27 07:33:18;;;;;;;55.38;30.72;;;;;;;8.51;100.00;100059.01;1786503;80;25539;-71
2024/02/27 07:35:44;;;;;;;60.90;32.40;;;;;;;8.59;100.00;100060.19;1786570;80;25517;-71
2024/02/27 07:38:10;;;;;;;56.02;31.30;;;;;;;8.68;100.00;100057.58;1786549;80;25500;-68
2024/02/27 07:40:37;;;;;;;56.20;31.62;;;;;;;8.73;100.00;100062.30;1786557;80;25380;-69
2024/02/27 07:43:04;;;;;;;58.00;31.62;;;;;;;8.81;100.00;100064.06;1786681;80;28442;-68
2024/02/27 07:45:33;;;;;;;60.88;32.00;;;;;;;8.85;100.00;100060.44;1786530;80;25916;-69
2024/02/27 07:48:01;;;;;;;56.68;31.07;;;;;;;8.91;100.00;100055.75;1786513;80;25625;-68
2024/02/27 07:50:27;;;;;;;55.50;32.08;;;;;;;9.00;100.00;100062.02;1786488;80;26463;-69
2024/02/27 07:52:56;;;;;;;55.92;31.50;;;;;;;9.15;100.00;100071.67;1786538;80;25457;-66
2024/02/27 07:55:22;;;;;;;62.55;32.93;;;;;;;9.28;100.00;100076.23;1786235;80;28072;-67
2024/02/27 07:57:49;;;;;;;56.45;29.70;;;;;;;9.43;100.00;100071.56;1785543;80;25623;-68
2024/02/27 08:00:18;;;;;;;57.43;29.90;;;;;;;9.60;100.00;100077.08;1785550;80;25750;-67
2024/02/27 08:02:46;;;;;;;61.77;31.68;;;;;;;9.88;100.00;100068.86;1786539;80;25502;-68
2024/02/27 08:05:14;;;;;;;60.90;33.48;;;;;;;10.22;100.00;100076.33;1786511;79;25431;-68
2024/02/27 08:07:42;;;;;;;55.12;30.05;;;;;;;10.48;100.00;100075.66;1786624;80;27469;-68
2024/02/27 08:10:09;;;;;;;50.45;29.82;;;;;;;10.56;100.00;100073.54;1786604;80;25637;-68
2024/02/27 08:12:41;;;;;;;47.17;27.05;;;;;;;10.68;100.00;100070.80;1786636;80;25401;-67
2024/02/27 08:15:09;;;;;;;48.80;27.48;;;;;;;10.76;100.00;100070.00;1786544;80;25553;-68
2024/02/27 08:17:37;;;;;;;45.12;27.73;;;;;;;11.09;100.00;100074.99;1786686;80;25451;-68
2024/02/27 08:20:06;;;;;;;46.83;27.45;;;;;;;11.46;100.00;100064.08;1786546;80;27452;-66
2024/02/27 08:22:34;;;;;;;53.05;28.07;;;;;;;11.93;100.00;100067.44;1786609;80;25625;-67
2024/02/27 08:25:02;;;;;;;44.08;26.27;;;;;;;12.50;100.00;100071.13;1786541;80;25610;-67
2024/02/27 08:27:30;;;;;;;47.15;26.82;;;;;;;12.91;100.00;100070.75;1786666;80;25565;-67
2024/02/27 08:29:57;;;;;;;38.73;23.40;;;;;;;13.42;100.00;100073.64;1786585;80;25444;-68
2024/02/27 08:32:24;;;;;;;44.93;26.02;;;;;;;13.96;100.00;100076.05;1786530;80;28145;-67
2024/02/27 08:34:51;;;;;;;39.78;23.50;;;;;;;14.53;100.00;100064.90;1786389;80;25577;-68
2024/02/27 08:37:17;;;;;;;41.15;23.52;;;;;;;15.24;100.00;100070.36;1786498;80;25380;-67
2024/02/27 08:39:45;;;;;;;42.43;24.10;;;;;;;15.83;99.46;100060.70;1786501;80;25455;-67
2024/02/27 08:42:11;;;;;;;38.13;23.35;;;;;;;16.53;97.63;100063.38;1786563;80;25515;-68
2024/02/27 08:44:40;;;;;;;39.75;22.85;;;;;;;17.12;85.23;100064.29;1786525;80;27794;-67
2024/02/27 08:47:07;;;;;;;35.92;22.45;;;;;;;17.42;88.29;100067.83;1786619;80;25859;-67
2024/02/27 08:49:34;;;;;;;37.93;22.37;;;;;;;17.67;86.03;100068.31;1786560;80;25397;-68
2024/02/27 08:52:00;;;;;;;32.40;21.60;;;;;;;18.04;84.03;100068.39;1786523;80;25714;-68
2024/02/27 08:54:26;;;;;;;30.40;20.80;;;;;;;18.29;80.70;100066.08;1786478;80;25617;-68
2024/02/27 08:56:53;;;;;;;32.80;20.52;;;;;;;18.65;82.28;100071.51;1786532;80;27374;-67
2024/02/27 08:59:20;;;;;;;33.88;22.05;;;;;;;19.26;76.13;100070.77;1786414;80;25389;-68
2024/02/27 09:06:37;;;;;;;37.33;21.95;;;;;;;19.11;72.31;100073.93;1793662;79;25467;-68
2024/02/27 09:08:39;;;;;;;35.10;21.10;;;;;;;18.41;69.04;100069.98;1742057;79;25461;-67
2024/02/27 09:11:06;;;;;;;30.85;20.08;;;;;;;17.91;70.24;100068.58;1797980;79;28014;-68
2024/02/27 09:13:34;;;;;;;32.25;21.15;;;;;;;17.68;69.73;100071.25;1797876;79;25608;-67
2024/02/27 09:16:03;;;;;;;31.87;22.07;;;;;;;17.72;70.62;100074.86;1798171;79;25444;-66
2024/02/27 09:18:31;;;;;;;34.40;23.22;;;;;;;17.77;70.54;100068.28;1798025;79;25995;-67
2024/02/27 09:21:00;;;;;;;34.00;21.50;;;;;;;17.82;71.38;100073.45;1798003;79;25617;-68
2024/02/27 09:23:27;;;;;;;34.90;20.40;;;;;;;17.99;69.92;100066.74;1798129;79;27868;-67
2024/02/27 09:25:56;;;;;;;34.85;21.10;;;;;;;18.24;71.95;100065.02;1797900;79;25427;-67
2024/02/27 09:28:24;;;;;;;36.60;21.73;;;;;;;18.65;70.33;100070.14;1798228;79;25543;-67
2024/02/27 09:30:51;;;;;;;32.60;20.70;;;;;;;18.84;70.54;100070.63;1797950;79;25662;-67
2024/02/27 09:33:19;;;;;;;31.33;20.08;;;;;;;19.13;66.13;100077.08;1797954;79;25560;-67
2024/02/27 09:35:47;;;;;;;34.55;20.08;;;;;;;19.30;68.49;100078.47;1797910;79;27660;-67
2024/02/27 09:38:15;;;;;;;25.30;18.73;;;;;;;19.67;68.84;100073.02;1797991;79;25407;-66
2024/02/27 09:40:44;;;;;;;27.27;18.77;;;;;;;20.40;70.39;100074.45;1797977;79;25635;-67
2024/02/27 09:43:16;;;;;;;31.40;19.95;;;;;;;21.22;66.95;100076.95;1798093;79;25562;-68
2024/02/27 09:45:43;;;;;;;28.02;19.35;;;;;;;21.65;66.92;100071.60;1797046;79;25464;-66
2024/02/27 09:48:12;;;;;;;29.52;17.20;;;;;;;22.01;60.36;100074.41;1797929;79;27764;-65
2024/02/27 09:50:41;;;;;;;27.10;17.98;;;;;;;21.81;60.49;100078.92;1798006;79;25613;-66
2024/02/27 09:53:11;;;;;;;31.48;19.45;;;;;;;21.96;62.71;100082.48;1798151;79;25392;-66
2024/02/27 09:55:38;;;;;;;23.83;17.27;;;;;;;22.28;60.74;100074.84;1798089;79;25593;-66
2024/02/27 09:58:12;;;;;;;25.92;18.73;;;;;;;22.35;58.72;100067.16;1798157;79;25418;-66
2024/02/27 10:00:36;;;;;;;23.45;16.42;;;;;;;22.46;58.28;100058.30;1797651;79;27320;-66
2024/02/27 10:03:06;;;;;;;25.08;17.05;;;;;;;22.73;59.08;100067.49;1798046;79;26048;-66
2024/02/27 10:05:38;;;;;;;25.37;17.02;;;;;;;23.27;59.11;100066.75;1798121;79;25436;-66
2024/02/27 10:08:25;;;;;;;28.65;17.75;;;;;;;23.53;57.21;100067.44;1801216;79;25603;-66
2024/02/27 10:10:53;;;;;;;23.05;17.45;;;;;;;23.16;55.54;100072.92;1796989;79;25648;-67
2024/02/27 10:13:30;;;;;;;26.20;18.50;;;;;;;22.54;55.08;100064.58;1801328;79;27280;-68
2024/02/27 10:16:06;;;;;;;27.35;16.93;;;;;;;22.04;54.64;100061.84;1800967;79;25578;-68
2024/02/27 10:18:48;;;;;;;27.27;17.07;;;;;;;21.55;53.90;100069.61;1801266;79;25395;-67
2024/02/27 10:21:26;;;;;;;23.32;16.48;;;;;;;21.44;55.42;100069.56;1794931;79;26766;-67
2024/02/27 10:24:07;;;;;;;24.98;15.65;;;;;;;21.52;55.91;100069.01;1795805;79;25660;-67
2024/02/27 10:26:50;;;;;;;26.07;17.05;;;;;;;22.05;56.90;100070.28;1788399;79;25955;-67
2024/02/27 10:29:35;;;;;;;22.77;15.93;;;;;;;22.66;55.55;100073.83;1776066;79;25857;-67
2024/02/27 10:32:16;;;;;;;21.80;15.15;;;;;;;22.62;52.82;100079.15;1766711;79;25538;-65
2024/02/27 10:35:03;;;;;;;22.37;15.48;;;;;;;21.90;51.31;100079.91;1759148;79;25554;-66
2024/02/27 10:37:44;;;;;;;22.50;15.95;;;;;;;21.18;52.10;100074.75;1776734;79;26012;-64
2024/02/27 10:40:34;;;;;;;24.57;15.72;;;;;;;20.84;54.71;100079.09;1761833;79;26757;-65
2024/02/27 10:42:59;;;;;;;22.20;15.90;;;;;;;20.98;54.44;100085.28;1731411;79;25691;-65
2024/02/27 10:45:29;;;;;;;23.10;15.35;;;;;;;21.00;54.96;100078.81;1779356;78;25696;-64
2024/02/27 10:48:04;;;;;;;28.92;16.75;;;;;;;20.86;54.48;100076.78;1791606;79;25684;-65
2024/02/27 10:50:47;;;;;;;24.70;15.80;;;;;;;20.97;55.89;100076.23;1792313;79;25662;-65
2024/02/27 10:53:21;;;;;;;19.98;14.85;;;;;;;21.02;54.84;100071.73;1787583;79;26198;-65
2024/02/27 10:56:01;;;;;;;22.82;15.43;;;;;;;21.01;54.19;100069.38;1796795;79;26057;-65
2024/02/27 10:58:27;;;;;;;20.40;14.93;;;;;;;20.63;53.21;100068.77;1794087;79;25408;-64
2024/02/27 11:00:55;;;;;;;24.07;14.58;;;;;;;20.28;54.12;100068.11;1801185;79;25497;-65
2024/02/27 11:03:24;;;;;;;22.15;14.73;;;;;;;20.05;54.26;100073.79;1801184;79;25455;-64
2024/02/27 11:05:50;;;;;;;;;;;;;;;19.75;54.53;100074.70;1803884;79;27866;-64
2024/02/27 11:08:19;;;;;;;22.65;13.88;;;;;;;19.45;54.38;100075.32;1787169;78;25585;-65
2024/02/27 11:10:47;;;;;;;21.35;14.03;;;;;;;19.19;54.98;100087.94;1786585;80;25589;-65
2024/02/27 11:13:16;;;;;;;18.83;13.50;;;;;;;18.90;55.35;100092.23;1786795;80;25528;-66
2024/02/27 11:15:44;;;;;;;;;;;;;;;18.60;55.84;100082.78;1789197;80;25520;-67
2024/02/27 11:18:13;;;;;;;16.82;12.37;;;;;;;18.33;56.42;100078.45;1786620;80;27965;-66
2024/02/27 11:20:42;;;;;;;21.47;13.53;;;;;;;18.24;57.89;100086.33;1786753;80;25608;-66
2024/02/27 11:23:08;;;;;;;20.17;13.32;;;;;;;18.28;58.93;100083.06;1786781;80;25619;-66